Time;durP1;ratioP1;P1;durP2;ratioP2;P2;SDS_P1;SDS_P2;PMS_P1;PMS_P2;Temp;Humidity;BMP_temperature;BMP_pressure;BME280_temperature;BME280_humidity;BME280_pressure;Samples;Min_cycle;Max_cycle;Signal;HPM_P1;HPM_P2
2024/01/25 00:00:21;;;;;;;51.13;12.03;;;24.40;41.80;;;;;;5070284;28;20196;-67
2024/01/25 00:02:49;;;;;;;42.53;10.97;;;24.40;41.80;;;;;;5075494;28;20232;-68
2024/01/25 00:05:16;;;;;;;35.73;11.47;;;24.40;41.80;;;;;;5074768;28;20198;-68
2024/01/25 00:07:52;;;;;;;53.20;12.70;;;24.40;41.80;;;;;;5071462;28;20207;-68
2024/01/25 00:10:20;;;;;;;49.87;13.57;;;24.40;41.80;;;;;;5088048;28;20629;-67
2024/01/25 00:12:47;;;;;;;56.30;11.93;;;24.40;41.80;;;;;;5089852;28;20207;-69
2024/01/25 00:15:14;;;;;;;41.63;11.07;;;24.40;41.80;;;;;;5090143;28;20205;-67
2024/01/25 00:17:41;;;;;;;43.97;11.77;;;24.40;41.80;;;;;;5070117;28;20219;-70
2024/01/25 00:20:10;;;;;;;40.93;11.53;;;24.40;41.80;;;;;;5068883;28;20210;-69
2024/01/25 00:22:37;;;;;;;42.43;11.97;;;24.40;41.80;;;;;;5069314;28;20979;-67
2024/01/25 00:25:05;;;;;;;80.63;13.27;;;24.40;41.80;;;;;;5069004;28;20194;-67
2024/01/25 00:27:33;;;;;;;56.87;12.80;;;24.40;41.80;;;;;;5073044;28;20305;-67
2024/01/25 00:30:00;;;;;;;57.97;12.77;;;24.40;41.80;;;;;;5089716;28;20205;-67
2024/01/25 00:32:27;;;;;;;48.30;12.73;;;24.40;41.80;;;;;;5079883;28;20298;-68
2024/01/25 00:34:55;;;;;;;48.33;12.67;;;24.40;41.80;;;;;;5079884;28;20209;-67
2024/01/25 00:37:22;;;;;;;46.80;12.17;;;24.40;41.80;;;;;;5089152;28;20293;-67
2024/01/25 00:39:50;;;;;;;55.20;12.20;;;24.40;41.80;;;;;;5088864;28;20289;-67
2024/01/25 00:42:17;;;;;;;57.33;12.40;;;24.40;41.90;;;;;;5079160;28;20442;-68
2024/01/25 00:44:46;;;;;;;49.33;12.47;;;24.40;41.80;;;;;;5069110;28;20203;-68
2024/01/25 00:47:14;;;;;;;54.40;13.07;;;24.40;41.80;;;;;;5079359;28;20252;-69
2024/01/25 00:49:41;;;;;;;45.43;11.97;;;24.40;41.80;;;;;;5089250;28;20187;-69
2024/01/25 00:52:09;;;;;;;46.90;12.87;;;24.40;41.80;;;;;;5089003;28;20281;-68
2024/01/25 00:54:37;;;;;;;52.10;12.03;;;24.40;41.80;;;;;;5089132;28;20194;-67
2024/01/25 00:57:04;;;;;;;69.77;16.10;;;24.40;42.50;;;;;;5087577;28;20187;-70
2024/01/25 00:59:32;;;;;;;46.57;12.57;;;24.40;41.80;;;;;;5084822;28;20199;-69
2024/01/25 01:02:03;;;;;;;36.43;10.50;;;24.40;41.90;;;;;;5089017;28;20289;-72
2024/01/25 01:04:30;;;;;;;50.30;12.13;;;24.40;41.80;;;;;;5088650;28;20244;-74
2024/01/25 01:06:57;;;;;;;51.13;11.73;;;24.40;41.90;;;;;;5081176;28;20206;-70
2024/01/25 01:09:24;;;;;;;44.70;11.33;;;24.40;41.90;;;;;;5068702;28;20199;-68
2024/01/25 01:11:52;;;;;;;51.13;13.33;;;24.40;41.90;;;;;;5087759;28;20315;-70
2024/01/25 01:14:19;;;;;;;48.60;11.33;;;24.40;41.80;;;;;;5088766;28;20214;-67
2024/01/25 01:16:45;;;;;;;38.60;11.00;;;24.40;41.80;;;;;;5086448;28;20234;-70
2024/01/25 01:19:14;;;;;;;44.30;10.10;;;24.40;41.90;;;;;;5088249;28;20187;-68
2024/01/25 01:21:43;;;;;;;56.23;12.67;;;24.40;41.80;;;;;;5080752;28;20664;-70
2024/01/25 01:24:10;;;;;;;50.67;12.23;;;24.40;41.80;;;;;;5068119;28;20216;-67
2024/01/25 01:26:38;;;;;;;50.10;11.83;;;24.40;41.90;;;;;;5067233;28;20207;-69
2024/01/25 01:29:05;;;;;;;53.07;12.83;;;24.40;41.90;;;;;;5068080;28;20631;-67
2024/01/25 01:31:32;;;;;;;49.43;11.77;;;24.40;41.80;;;;;;5067799;28;20217;-69
2024/01/25 01:33:59;;;;;;;53.37;12.63;;;24.40;41.80;;;;;;5068011;28;20210;-67
2024/01/25 01:36:27;;;;;;;45.27;12.63;;;24.40;41.80;;;;;;5081126;28;20302;-67
2024/01/25 01:38:54;;;;;;;49.13;12.30;;;24.40;41.80;;;;;;5076988;28;20282;-68
2024/01/25 01:41:21;;;;;;;39.80;10.60;;;24.40;41.80;;;;;;5067483;28;20199;-71
2024/01/25 01:43:48;;;;;;;44.20;10.83;;;24.40;41.80;;;;;;5067672;28;20258;-68
2024/01/25 01:46:33;;;;;;;59.33;12.57;;;24.40;41.80;;;;;;5075310;28;20215;-69
2024/01/25 01:49:01;;;;;;;46.20;12.43;;;24.40;41.80;;;;;;5087752;28;20198;-66
2024/01/25 01:51:30;;;;;;;49.33;12.70;;;24.40;41.80;;;;;;5078155;28;20286;-69
2024/01/25 01:53:58;;;;;;;45.53;11.00;;;24.40;42.30;;;;;;5067812;28;20814;-68
2024/01/25 01:56:27;;;;;;;47.00;11.03;;;24.40;41.80;;;;;;5067372;28;20199;-67
2024/01/25 01:58:55;;;;;;;47.17;11.33;;;24.40;41.80;;;;;;5067783;28;20397;-68
2024/01/25 02:01:22;;;;;;;46.83;12.00;;;24.40;41.80;;;;;;5067573;28;20759;-69
2024/01/25 02:03:49;;;;;;;77.37;14.70;;;24.40;41.80;;;;;;5083151;28;20228;-74
2024/01/25 02:06:16;;;;;;;48.70;11.30;;;24.40;42.50;;;;;;5086414;28;20282;-70
2024/01/25 02:08:44;;;;;;;77.47;13.30;;;24.40;41.80;;;;;;5086310;28;20283;-67
2024/01/25 02:11:13;;;;;;;49.60;11.13;;;24.40;41.80;;;;;;5069396;28;20207;-70
2024/01/25 02:13:40;;;;;;;51.23;11.90;;;24.40;41.80;;;;;;5071121;28;20214;-69
2024/01/25 02:16:08;;;;;;;41.47;14.17;;;24.40;41.80;;;;;;5073742;28;20203;-68
2024/01/25 02:18:35;;;;;;;45.90;10.97;;;24.40;41.80;;;;;;5087302;28;20225;-68
2024/01/25 02:21:03;;;;;;;63.67;12.87;;;24.40;41.80;;;;;;5077223;28;20203;-70
2024/01/25 02:23:32;;;;;;;45.70;10.27;;;24.40;41.80;;;;;;5066937;28;20227;-68
2024/01/25 02:25:58;;;;;;;67.80;13.23;;;24.40;41.80;;;;;;5066845;28;20207;-75
2024/01/25 02:28:26;;;;;;;48.40;12.10;;;24.40;41.80;;;;;;5067218;28;20201;-77
2024/01/25 02:30:52;;;;;;;48.20;11.30;;;24.40;41.80;;;;;;5069527;28;20326;-73
2024/01/25 02:33:19;;;;;;;41.00;11.50;;;24.40;41.80;;;;;;5069966;28;20590;-76
2024/01/25 02:35:46;;;;;;;74.50;13.90;;;24.40;41.80;;;;;;5072885;28;20207;-70
2024/01/25 02:38:13;;;;;;;49.97;12.03;;;24.40;41.80;;;;;;5078141;28;20238;-71
2024/01/25 02:40:42;;;;;;;46.90;11.87;;;24.40;41.80;;;;;;5071520;28;20210;-67
2024/01/25 02:43:09;;;;;;;49.30;11.87;;;24.40;41.80;;;;;;5071023;28;20233;-69
2024/01/25 02:45:36;;;;;;;40.97;10.97;;;24.40;41.80;;;;;;5082959;28;20286;-67
2024/01/25 02:48:04;;;;;;;49.17;12.00;;;24.40;41.80;;;;;;5091236;28;20191;-67
2024/01/25 02:50:31;;;;;;;51.50;12.50;;;24.40;41.80;;;;;;5091032;28;20199;-67
2024/01/25 02:52:58;;;;;;;51.90;13.20;;;24.40;41.80;;;;;;5089463;28;20225;-67
2024/01/25 02:55:25;;;;;;;42.43;11.67;;;24.40;41.80;;;;;;5091462;28;20213;-67
2024/01/25 02:57:53;;;;;;;62.60;11.83;;;24.40;41.80;;;;;;5091419;28;20294;-68
2024/01/25 03:00:20;;;;;;;45.80;11.20;;;24.40;41.80;;;;;;5091493;28;20293;-67
2024/01/25 03:02:47;;;;;;;49.20;12.23;;;24.40;41.80;;;;;;5088389;28;20305;-68
2024/01/25 03:05:14;;;;;;;51.70;12.40;;;24.40;41.80;;;;;;5089948;28;20237;-67
2024/01/25 03:07:41;;;;;;;48.23;11.57;;;24.40;41.80;;;;;;5077031;28;20268;-68
2024/01/25 03:10:09;;;;;;;45.10;11.10;;;24.40;41.80;;;;;;5070797;28;20200;-67
2024/01/25 03:12:36;;;;;;;53.77;12.63;;;24.40;41.80;;;;;;5080730;28;20218;-69
2024/01/25 03:15:05;;;;;;;48.80;11.43;;;24.40;41.80;;;;;;5090577;28;20203;-68
2024/01/25 03:17:32;;;;;;;53.73;13.10;;;24.40;41.80;;;;;;5090589;28;20227;-67
2024/01/25 03:19:59;;;;;;;49.90;11.33;;;24.40;41.80;;;;;;5068723;28;20203;-67
2024/01/25 03:22:26;;;;;;;40.67;10.90;;;24.40;41.80;;;;;;5070117;28;20283;-72
2024/01/25 03:24:53;;;;;;;56.03;12.80;;;24.40;41.80;;;;;;5070254;28;20310;-70
2024/01/25 03:27:20;;;;;;;51.80;12.17;;;24.40;41.80;;;;;;5069905;28;20210;-75
2024/01/25 03:29:46;;;;;;;46.13;12.30;;;24.40;41.80;;;;;;5084577;28;20293;-70
2024/01/25 03:32:15;;;;;;;49.60;11.93;;;24.40;41.80;;;;;;5090433;28;20226;-67
2024/01/25 03:34:42;;;;;;;53.00;11.13;;;24.40;41.80;;;;;;5089843;28;20286;-68
2024/01/25 03:37:09;;;;;;;51.07;13.03;;;24.40;41.80;;;;;;5084319;28;20294;-68
2024/01/25 03:39:36;;;;;;;70.20;13.23;;;24.40;41.80;;;;;;5069597;28;20286;-71
2024/01/25 03:42:02;;;;;;;61.73;12.90;;;24.40;41.80;;;;;;5078670;28;20207;-69
2024/01/25 03:44:29;;;;;;;43.00;11.47;;;24.50;41.90;;;;;;5089929;28;20226;-66
2024/01/25 03:46:56;;;;;;;49.10;11.13;;;24.40;41.80;;;;;;5089502;28;20241;-66
2024/01/25 03:49:24;;;;;;;48.37;11.43;;;24.40;41.80;;;;;;5089672;28;20290;-67
2024/01/25 03:51:51;;;;;;;46.40;11.77;;;24.40;41.80;;;;;;5079823;28;20200;-68
2024/01/25 03:54:18;;;;;;;44.97;11.40;;;24.40;41.80;;;;;;5069971;28;20192;-69
2024/01/25 03:56:45;;;;;;;43.90;11.33;;;24.40;41.80;;;;;;5069777;28;20207;-68
2024/01/25 03:59:13;;;;;;;59.30;12.00;;;24.40;41.80;;;;;;5069592;28;20208;-67
2024/01/25 04:01:44;;;;;;;47.70;11.00;;;24.40;41.80;;;;;;5080500;28;20224;-67
2024/01/25 04:04:12;;;;;;;51.07;11.63;;;24.40;41.80;;;;;;5089499;28;20230;-69
2024/01/25 04:06:42;;;;;;;47.83;13.23;;;24.40;41.80;;;;;;5079208;28;20195;-68
2024/01/25 04:09:09;;;;;;;49.30;11.63;;;24.40;41.80;;;;;;5069109;28;20203;-67
2024/01/25 04:11:36;;;;;;;46.97;11.23;;;24.40;41.80;;;;;;5085596;28;20203;-68
2024/01/25 04:14:03;;;;;;;53.77;12.00;;;24.40;41.70;;;;;;5089158;28;20269;-68
2024/01/25 04:16:30;;;;;;;48.43;12.43;;;24.40;41.80;;;;;;5090251;28;20282;-68
2024/01/25 04:18:57;;;;;;;53.57;12.00;;;24.40;41.70;;;;;;5089482;28;20199;-70
2024/01/25 04:21:24;;;;;;;46.00;11.90;;;24.40;41.80;;;;;;5073911;28;20192;-67
2024/01/25 04:23:53;;;;;;;44.03;10.90;;;24.40;41.70;;;;;;5069353;28;20313;-68
2024/01/25 04:26:20;;;;;;;54.30;13.07;;;24.40;41.70;;;;;;5069347;28;20207;-67
2024/01/25 04:28:46;;;;;;;78.20;13.93;;;24.40;42.40;;;;;;5072355;28;20627;-67
2024/01/25 04:31:13;;;;;;;51.97;12.30;;;24.40;41.80;;;;;;5089271;28;20293;-69
2024/01/25 04:33:40;;;;;;;56.27;12.07;;;24.40;41.80;;;;;;5081493;28;20200;-68
2024/01/25 04:36:08;;;;;;;42.57;10.17;;;24.40;41.80;;;;;;5068826;28;20254;-70
2024/01/25 04:38:35;;;;;;;43.77;14.37;;;24.40;41.70;;;;;;5068964;28;20671;-68
2024/01/25 04:41:03;;;;;;;47.80;11.90;;;24.40;41.70;;;;;;5068541;28;20290;-68
2024/01/25 04:43:35;;;;;;;46.07;11.60;;;24.40;41.80;;;;;;5085212;28;20199;-74
2024/01/25 04:46:02;;;;;;;66.90;12.10;;;24.40;41.70;;;;;;5088984;28;20564;-73
2024/01/25 04:48:29;;;;;;;44.37;10.47;;;24.40;41.70;;;;;;5089234;28;20210;-67
2024/01/25 04:50:57;;;;;;;55.63;12.53;;;24.40;41.70;;;;;;5085974;28;20203;-68
2024/01/25 04:53:24;;;;;;;56.33;12.27;;;24.40;41.70;;;;;;5068493;28;20369;-67
2024/01/25 04:55:51;;;;;;;44.00;11.00;;;24.40;41.80;;;;;;5068258;28;20219;-68
2024/01/25 04:58:20;;;;;;;56.43;11.87;;;24.40;41.70;;;;;;5070025;28;20200;-69
2024/01/25 05:00:47;;;;;;;55.63;11.50;;;24.40;41.70;;;;;;5084967;28;20199;-67
2024/01/25 05:03:14;;;;;;;48.67;12.77;;;24.40;41.70;;;;;;5088741;28;20213;-67
2024/01/25 05:05:41;;;;;;;45.53;12.10;;;24.40;41.70;;;;;;5088830;28;20236;-67
2024/01/25 05:08:08;;;;;;;55.77;12.23;;;24.40;41.70;;;;;;5088128;28;20205;-70
2024/01/25 05:10:34;;;;;;;55.47;12.87;;;24.40;41.70;;;;;;5072768;28;20293;-67
2024/01/25 05:13:01;;;;;;;58.37;11.47;;;24.40;41.70;;;;;;5088864;28;20286;-67
2024/01/25 05:15:30;;;;;;;57.70;12.27;;;24.40;41.70;;;;;;5088219;28;20197;-67
2024/01/25 05:17:57;;;;;;;43.13;11.97;;;24.40;41.70;;;;;;5088444;28;20656;-67
2024/01/25 05:20:28;;;;;;;62.30;12.03;;;24.40;42.30;;;;;;5083841;28;20960;-68
2024/01/25 05:22:55;;;;;;;49.10;11.40;;;24.40;41.70;;;;;;5068487;28;20207;-68
2024/01/25 05:25:22;;;;;;;44.43;10.60;;;24.40;41.70;;;;;;5069762;28;20231;-67
2024/01/25 05:27:49;;;;;;;44.60;12.47;;;24.40;41.70;;;;;;5068251;28;20208;-67
2024/01/25 05:30:17;;;;;;;57.33;12.73;;;24.40;41.70;;;;;;5068506;28;20386;-67
2024/01/25 05:32:46;;;;;;;51.67;11.50;;;24.50;42.30;;;;;;5076880;28;20218;-67
2024/01/25 05:35:13;;;;;;;54.90;12.23;;;24.50;41.80;;;;;;5074979;28;20215;-67
2024/01/25 05:37:40;;;;;;;40.43;10.57;;;24.40;41.70;;;;;;5080947;28;20203;-67
2024/01/25 05:40:09;;;;;;;42.47;10.83;;;24.40;41.70;;;;;;5086914;28;20756;-67
2024/01/25 05:42:36;;;;;;;43.13;11.13;;;24.50;42.00;;;;;;5080852;28;20207;-68
2024/01/25 05:45:03;;;;;;;50.87;11.77;;;24.40;41.70;;;;;;5068667;28;20489;-67
2024/01/25 05:47:30;;;;;;;51.70;12.50;;;24.50;42.30;;;;;;5079337;28;20214;-68
2024/01/25 05:49:59;;;;;;;41.07;10.40;;;24.40;41.70;;;;;;5086678;28;20318;-68
2024/01/25 05:52:26;;;;;;;50.20;12.63;;;24.50;41.70;;;;;;5069180;28;20286;-67
2024/01/25 05:54:53;;;;;;;49.83;11.47;;;24.50;41.80;;;;;;5078217;28;20932;-67
2024/01/25 05:57:20;;;;;;;55.83;11.93;;;24.50;41.70;;;;;;5087937;28;20205;-68
2024/01/25 05:59:47;;;;;;;44.93;11.77;;;24.50;41.80;;;;;;5086368;28;20620;-68
2024/01/25 06:02:14;;;;;;;65.03;12.47;;;24.50;41.70;;;;;;5088009;28;20604;-67
2024/01/25 06:04:41;;;;;;;73.03;17.87;;;24.50;42.30;;;;;;5072305;28;20227;-68
2024/01/25 06:07:10;;;;;;;72.90;18.10;;;24.50;41.70;;;;;;5077031;28;20289;-74
2024/01/25 06:09:37;;;;;;;101.63;19.50;;;24.50;41.80;;;;;;5072101;28;20199;-69
2024/01/25 06:12:05;;;;;;;51.40;17.50;;;24.50;41.80;;;;;;5080107;28;20290;-69
2024/01/25 06:14:32;;;;;;;61.60;17.07;;;24.50;41.80;;;;;;5075748;28;20741;-75
2024/01/25 06:16:59;;;;;;;59.90;18.10;;;24.50;41.80;;;;;;5086193;28;20222;-73
2024/01/25 06:19:26;;;;;;;46.50;15.70;;;24.50;41.80;;;;;;5076376;28;20206;-69
2024/01/25 06:21:53;;;;;;;67.67;17.83;;;24.50;41.90;;;;;;5067398;28;20206;-77
2024/01/25 06:24:21;;;;;;;44.70;16.60;;;24.50;41.90;;;;;;5067837;28;20286;-76
2024/01/25 06:26:48;;;;;;;55.33;16.07;;;24.60;42.00;;;;;;5083913;28;20756;-76
2024/01/25 06:29:15;;;;;;;52.17;18.63;;;24.60;42.00;;;;;;5087868;28;20206;-75
2024/01/25 06:31:44;;;;;;;96.90;15.53;;;24.60;42.00;;;;;;5072882;28;20297;-68
2024/01/25 06:34:11;;;;;;;51.27;12.23;;;24.60;42.00;;;;;;5071049;28;20207;-69
2024/01/25 06:36:38;;;;;;;72.17;14.10;;;24.60;42.60;;;;;;5067509;28;20204;-68
2024/01/25 06:39:06;;;;;;;59.33;12.23;;;24.60;42.00;;;;;;5067147;28;20205;-71
2024/01/25 06:41:34;;;;;;;48.20;13.43;;;24.70;42.10;;;;;;5067059;28;20669;-71
2024/01/25 06:44:02;;;;;;;69.77;13.10;;;24.70;42.00;;;;;;5066977;28;20195;-69
2024/01/25 06:46:29;;;;;;;52.57;11.93;;;24.70;42.00;;;;;;5067441;28;20282;-68
2024/01/25 06:48:56;;;;;;;60.90;14.10;;;24.70;42.00;;;;;;5077658;28;20294;-69
2024/01/25 06:51:24;;;;;;;54.60;12.73;;;24.70;42.00;;;;;;5087642;28;20194;-68
2024/01/25 06:53:51;;;;;;;50.97;12.07;;;24.70;42.00;;;;;;5087159;28;20187;-68
2024/01/25 06:56:18;;;;;;;46.00;12.17;;;24.70;42.00;;;;;;5087740;28;20281;-68
2024/01/25 06:58:46;;;;;;;47.63;11.60;;;24.70;41.90;;;;;;5087265;28;20274;-69
2024/01/25 07:01:13;;;;;;;64.28;16.13;;;24.80;42.00;;;;;;5086257;28;20360;-73
2024/01/25 07:03:40;;;;;;;58.83;12.05;;;24.80;42.00;;;;;;5086267;28;20606;-73
2024/01/25 07:06:07;;;;;;;45.30;11.87;;;24.60;42.20;;;;;;5087182;28;20231;-70
2024/01/25 07:08:34;;;;;;;40.70;12.40;;;24.60;42.10;;;;;;5087332;28;20207;-72
2024/01/25 07:11:01;;;;;;;54.80;13.20;;;24.70;42.10;;;;;;5086824;28;20225;-74
2024/01/25 07:13:28;;;;;;;57.73;14.70;;;24.80;42.70;;;;;;5087077;28;20678;-70
2024/01/25 07:15:57;;;;;;;62.30;14.40;;;24.80;42.00;;;;;;5088079;28;20193;-71
2024/01/25 07:18:24;;;;;;;49.00;14.83;;;24.80;41.90;;;;;;5090944;28;20365;-70
2024/01/25 07:20:51;;;;;;;54.63;16.37;;;24.80;41.90;;;;;;5090716;28;20285;-71
2024/01/25 07:23:19;;;;;;;52.07;16.67;;;24.80;42.50;;;;;;5090916;28;20199;-69
2024/01/25 07:25:46;;;;;;;82.37;19.70;;;24.80;41.80;;;;;;5090358;28;20227;-69
2024/01/25 07:28:13;;;;;;;50.43;16.70;;;24.80;41.80;;;;;;5084313;28;20664;-71
2024/01/25 07:30:40;;;;;;;51.40;16.70;;;24.80;41.80;;;;;;5070208;28;20521;-69
2024/01/25 07:33:09;;;;;;;63.97;17.57;;;24.80;41.80;;;;;;5069754;28;20282;-70
2024/01/25 07:35:36;;;;;;;49.77;17.23;;;24.80;41.70;;;;;;5070331;28;20290;-69
2024/01/25 07:38:03;;;;;;;47.77;17.23;;;24.80;42.30;;;;;;5070401;28;20192;-69
2024/01/25 07:40:30;;;;;;;48.60;15.70;;;24.80;41.70;;;;;;5069966;28;20579;-69
2024/01/25 07:42:57;;;;;;;55.63;17.43;;;24.80;41.70;;;;;;5070310;28;20299;-70
2024/01/25 07:45:24;;;;;;;47.17;16.97;;;24.80;41.70;;;;;;5069934;28;20589;-70
2024/01/25 07:47:50;;;;;;;49.10;18.03;;;24.80;41.70;;;;;;5070504;28;20293;-70
2024/01/25 07:50:19;;;;;;;58.03;18.80;;;24.80;41.70;;;;;;5070113;28;20209;-70
2024/01/25 07:52:46;;;;;;;45.10;17.93;;;24.80;41.60;;;;;;5070247;28;20198;-70
2024/01/25 07:55:13;;;;;;;53.27;17.43;;;24.80;41.60;;;;;;5069386;28;20656;-70
2024/01/25 07:57:40;;;;;;;57.80;16.93;;;24.80;41.70;;;;;;5088830;28;20201;-69
2024/01/25 08:00:08;;;;;;;48.00;16.83;;;24.80;41.60;;;;;;5089981;28;20203;-70
2024/01/25 08:02:35;;;;;;;60.10;17.97;;;24.80;41.70;;;;;;5090189;28;20214;-69
2024/01/25 08:05:02;;;;;;;49.90;15.90;;;24.80;41.60;;;;;;5089718;28;20616;-75
2024/01/25 08:07:31;;;;;;;48.30;15.77;;;24.80;41.60;;;;;;5089818;28;20240;-74
2024/01/25 08:09:58;;;;;;;58.73;17.73;;;24.80;41.60;;;;;;5089298;28;20194;-74
2024/01/25 08:12:25;;;;;;;53.80;18.23;;;24.80;41.60;;;;;;5089868;28;20202;-75
2024/01/25 08:14:53;;;;;;;59.33;18.30;;;24.80;41.60;;;;;;5089569;28;20191;-74
2024/01/25 08:17:20;;;;;;;53.10;17.63;;;24.80;41.60;;;;;;5089932;28;20720;-77
2024/01/25 08:19:47;;;;;;;50.93;17.27;;;24.80;41.60;;;;;;5089434;28;20608;-77
2024/01/25 08:22:14;;;;;;;54.50;18.07;;;24.80;41.60;;;;;;5089367;28;20685;-74
2024/01/25 08:24:43;;;;;;;55.13;17.80;;;24.80;41.60;;;;;;5078632;28;20206;-74
2024/01/25 08:27:10;;;;;;;46.37;17.43;;;24.80;41.60;;;;;;5081574;28;20222;-76
2024/01/25 08:29:37;;;;;;;51.90;17.67;;;24.80;41.60;;;;;;5087333;28;20565;-77
2024/01/25 08:32:05;;;;;;;76.17;18.03;;;24.80;41.60;;;;;;5068996;28;20296;-73
2024/01/25 08:34:32;;;;;;;55.30;16.63;;;24.80;41.60;;;;;;5068801;28;20570;-75
2024/01/25 08:36:58;;;;;;;49.90;18.13;;;24.80;41.60;;;;;;5069178;28;20274;-75
2024/01/25 08:39:25;;;;;;;64.43;18.17;;;24.80;41.60;;;;;;5068826;28;20207;-73
2024/01/25 08:41:54;;;;;;;52.90;18.20;;;24.80;41.60;;;;;;5068860;28;20275;-76
2024/01/25 08:44:21;;;;;;;55.33;17.40;;;24.80;41.60;;;;;;5068673;28;20207;-73
2024/01/25 08:46:48;;;;;;;56.53;18.27;;;24.80;41.60;;;;;;5068786;28;20228;-73
2024/01/25 08:49:15;;;;;;;51.43;17.17;;;24.80;41.60;;;;;;5069442;28;20205;-77
2024/01/25 08:51:42;;;;;;;64.77;18.50;;;24.80;41.50;;;;;;5068918;28;20211;-77
2024/01/25 08:54:09;;;;;;;49.47;17.37;;;24.80;41.60;;;;;;5068923;28;20290;-70
2024/01/25 08:56:36;;;;;;;59.07;18.20;;;24.80;41.60;;;;;;5068303;28;20231;-70
2024/01/25 08:59:04;;;;;;;54.47;16.33;;;24.80;41.50;;;;;;5068318;28;20208;-70
2024/01/25 09:01:31;;;;;;;40.67;16.13;;;24.80;41.50;;;;;;5068122;28;20205;-70
2024/01/25 09:04:02;;;;;;;52.50;17.17;;;24.80;41.60;;;;;;5068703;28;20209;-70
2024/01/25 09:06:29;;;;;;;45.10;16.97;;;24.80;41.60;;;;;;5068307;28;20679;-71
2024/01/25 09:08:56;;;;;;;49.70;19.87;;;24.80;41.50;;;;;;5068384;28;20470;-70
2024/01/25 09:11:23;;;;;;;46.20;18.20;;;24.80;41.50;;;;;;5068596;28;20219;-71
2024/01/25 09:13:51;;;;;;;57.53;17.40;;;24.80;41.50;;;;;;5068326;28;20210;-70
2024/01/25 09:16:19;;;;;;;49.20;17.23;;;24.80;41.50;;;;;;5074775;28;20691;-70
2024/01/25 09:18:46;;;;;;;54.63;18.27;;;24.80;41.40;;;;;;5073616;28;20762;-69
2024/01/25 09:21:13;;;;;;;49.33;17.70;;;24.80;41.50;;;;;;5082386;28;20689;-71
2024/01/25 09:23:41;;;;;;;55.23;20.43;;;24.90;41.60;;;;;;5088389;28;20198;-71
2024/01/25 09:26:08;;;;;;;43.90;16.70;;;24.90;41.50;;;;;;5088075;28;20226;-69
2024/01/25 09:28:35;;;;;;;52.73;17.17;;;24.90;41.50;;;;;;5083131;28;20574;-69
2024/01/25 09:31:05;;;;;;;57.27;18.60;;;24.90;41.50;;;;;;5067811;28;20218;-70
2024/01/25 09:33:34;;;;;;;51.83;18.23;;;24.90;41.50;;;;;;5067711;28;20203;-70
2024/01/25 09:36:01;;;;;;;69.13;20.43;;;24.90;41.40;;;;;;5067414;28;20211;-71
2024/01/25 09:38:28;;;;;;;46.50;17.77;;;24.90;41.50;;;;;;5067637;28;20235;-71
2024/01/25 09:40:55;;;;;;;57.30;20.17;;;24.90;41.40;;;;;;5067644;28;20286;-70
2024/01/25 09:43:22;;;;;;;50.87;17.57;;;24.90;41.40;;;;;;5067690;28;20671;-71
2024/01/25 09:45:53;;;;;;;55.37;18.33;;;24.90;41.40;;;;;;5080818;28;20211;-70
2024/01/25 09:48:20;;;;;;;47.60;18.93;;;24.90;41.40;;;;;;5088409;28;20193;-70
2024/01/25 09:50:49;;;;;;;74.60;18.97;;;24.90;41.40;;;;;;5087577;28;20862;-72
2024/01/25 09:53:23;;;;;;;45.37;17.30;;;24.90;41.40;;;;;;5088185;28;20282;-71
2024/01/25 09:56:02;;;;;;;46.10;15.97;;;24.90;41.90;;;;;;5087753;28;20289;-73
2024/01/25 09:58:39;;;;;;;50.73;17.50;;;24.90;41.30;;;;;;5088182;28;20289;-74
2024/01/25 10:01:10;;;;;;;59.83;17.13;;;24.90;41.30;;;;;;5087859;28;20222;-74
2024/01/25 10:03:37;;;;;;;39.03;15.43;;;24.90;41.40;;;;;;5087745;28;20745;-76
2024/01/25 10:06:06;;;;;;;46.17;19.30;;;25.00;41.40;;;;;;5087314;28;21085;-71
2024/01/25 10:08:33;;;;;;;46.23;18.23;;;25.00;41.40;;;;;;5087934;28;20277;-76
2024/01/25 10:11:00;;;;;;;55.63;17.80;;;24.90;41.30;;;;;;5087712;28;20198;-75
2024/01/25 10:13:28;;;;;;;56.83;17.70;;;25.00;41.50;;;;;;5074157;28;20278;-70
2024/01/25 10:15:55;;;;;;;46.73;16.97;;;25.00;41.40;;;;;;5086972;28;20203;-71
2024/01/25 10:18:23;;;;;;;54.77;17.63;;;24.90;41.30;;;;;;5087643;28;20218;-74
2024/01/25 10:20:50;;;;;;;49.00;17.10;;;25.00;41.40;;;;;;5087174;28;20263;-71
2024/01/25 10:23:18;;;;;;;52.17;16.73;;;25.00;41.40;;;;;;5087888;28;20289;-70
2024/01/25 10:25:46;;;;;;;55.17;17.30;;;25.00;41.40;;;;;;5087703;28;20311;-70
2024/01/25 10:28:13;;;;;;;54.87;17.30;;;25.00;41.40;;;;;;5074089;28;20207;-70
2024/01/25 10:30:40;;;;;;;46.70;18.80;;;25.00;41.40;;;;;;5067200;28;20207;-69
2024/01/25 10:33:10;;;;;;;51.70;18.30;;;25.00;41.50;;;;;;5067308;28;20290;-70
2024/01/25 10:35:38;;;;;;;48.10;16.87;;;25.00;41.40;;;;;;5067086;28;20691;-69
2024/01/25 10:38:05;;;;;;;63.17;18.07;;;25.00;41.40;;;;;;5067416;28;20246;-70
2024/01/25 10:40:34;;;;;;;46.37;16.20;;;25.00;41.40;;;;;;5067289;28;20203;-69
2024/01/25 10:43:01;;;;;;;59.37;21.03;;;25.10;41.50;;;;;;5067087;28;20257;-72
2024/01/25 10:45:28;;;;;;;59.23;17.93;;;25.00;41.40;;;;;;5067059;28;20209;-72
2024/01/25 10:47:55;;;;;;;49.00;17.33;;;25.10;41.50;;;;;;5069878;28;20238;-73
2024/01/25 10:50:24;;;;;;;54.93;18.33;;;25.10;41.50;;;;;;5086523;28;20207;-74
2024/01/25 10:52:51;;;;;;;44.73;16.33;;;25.10;41.50;;;;;;5091061;28;20203;-74
2024/01/25 10:55:18;;;;;;;53.40;18.13;;;25.10;41.50;;;;;;5091256;28;20191;-73
2024/01/25 10:57:47;;;;;;;57.27;16.47;;;25.10;41.50;;;;;;5091005;28;20286;-75
2024/01/25 11:00:16;;;;;;;49.47;17.87;;;25.10;41.50;;;;;;5090937;28;20202;-74
2024/01/25 11:02:45;;;;;;;51.30;16.77;;;25.10;41.50;;;;;;5090957;28;20298;-75
2024/01/25 11:05:14;;;;;;;43.53;17.20;;;25.10;41.50;;;;;;5090923;28;20310;-74
2024/01/25 11:07:48;;;;;;;50.00;16.83;;;25.10;41.50;;;;;;5090776;28;20699;-71
2024/01/25 11:10:17;;;;;;;45.80;17.53;;;25.10;41.50;;;;;;5091089;28;20207;-70
2024/01/25 11:12:52;;;;;;;57.17;18.73;;;25.10;41.50;;;;;;5091038;28;20290;-73
2024/01/25 11:15:22;;;;;;;55.13;18.03;;;25.10;41.50;;;;;;5090908;28;20214;-75
2024/01/25 11:17:54;;;;;;;49.10;16.73;;;25.10;41.50;;;;;;5090382;28;20227;-73
2024/01/25 11:20:22;;;;;;;52.33;15.97;;;25.10;41.50;;;;;;5090911;28;20209;-71
2024/01/25 11:22:50;;;;;;;50.17;16.97;;;25.10;41.50;;;;;;5090652;28;20722;-75
2024/01/25 11:25:21;;;;;;;54.50;17.80;;;25.10;41.50;;;;;;5089782;28;20222;-70
2024/01/25 11:27:50;;;;;;;52.17;18.20;;;25.20;41.50;;;;;;5070343;28;20626;-76
2024/01/25 11:30:20;;;;;;;51.43;20.70;;;25.10;41.50;;;;;;5070128;28;20207;-76
2024/01/25 11:32:48;;;;;;;49.80;18.00;;;25.20;41.60;;;;;;5070189;28;20203;-72
2024/01/25 11:35:16;;;;;;;47.50;16.80;;;25.10;41.50;;;;;;5070296;28;20286;-76
2024/01/25 11:37:44;;;;;;;57.27;17.47;;;25.20;41.50;;;;;;5070267;28;20246;-73
2024/01/25 11:40:12;;;;;;;48.20;17.93;;;25.10;41.50;;;;;;5070622;28;20192;-72
2024/01/25 11:42:39;;;;;;;64.17;19.70;;;25.20;41.50;;;;;;5069877;28;20282;-71
2024/01/25 11:45:10;;;;;;;40.60;16.93;;;25.20;41.50;;;;;;5069986;28;20334;-70
2024/01/25 11:47:38;;;;;;;63.97;17.67;;;25.10;41.50;;;;;;5069493;28;20800;-73
2024/01/25 11:50:09;;;;;;;46.97;16.70;;;25.20;41.60;;;;;;5069739;28;20212;-70
2024/01/25 11:52:37;;;;;;;52.63;17.57;;;25.20;41.50;;;;;;5070067;28;20441;-75
2024/01/25 11:55:05;;;;;;;56.20;17.00;;;25.20;42.10;;;;;;5069635;28;20191;-70
2024/01/25 11:57:36;;;;;;;46.93;15.63;;;25.10;41.50;;;;;;5069711;28;20208;-74
2024/01/25 12:00:04;;;;;;;44.47;16.27;;;25.10;41.50;;;;;;5069509;28;20282;-71
2024/01/25 12:02:33;;;;;;;46.90;17.10;;;25.20;41.50;;;;;;5069639;28;20236;-74
2024/01/25 12:05:00;;;;;;;49.87;18.33;;;25.20;41.50;;;;;;5069317;28;20206;-72
2024/01/25 12:07:26;;;;;;;56.90;19.00;;;25.10;41.50;;;;;;5069410;28;20310;-74
2024/01/25 12:10:00;;;;;;;47.63;17.50;;;25.20;41.60;;;;;;5069613;28;20207;-72
2024/01/25 12:12:28;;;;;;;48.80;16.63;;;25.20;41.50;;;;;;5069650;28;20772;-73
2024/01/25 12:14:59;;;;;;;66.30;17.80;;;25.20;41.50;;;;;;5069576;28;20294;-72
2024/01/25 12:17:29;;;;;;;52.50;17.77;;;25.10;41.50;;;;;;5068984;28;20230;-72
2024/01/25 12:19:58;;;;;;;58.47;17.40;;;25.20;41.60;;;;;;5069361;28;20205;-72
2024/01/25 12:22:25;;;;;;;51.30;18.73;;;25.20;41.60;;;;;;5069471;28;20199;-71
2024/01/25 12:24:55;;;;;;;59.70;18.60;;;25.20;41.50;;;;;;5069107;28;20287;-71
2024/01/25 12:27:22;;;;;;;48.80;17.40;;;25.20;41.50;;;;;;5069169;28;20250;-73